createdAt,value
2022-08-19T00:02:00.183Z,15.75
2022-08-19T00:04:37.169Z,13.57
2022-08-19T00:07:07.097Z,17.13
2022-08-19T00:09:35.512Z,15.85
2022-08-19T00:12:04.640Z,17.55
2022-08-19T00:14:33.349Z,21.33
2022-08-19T00:17:03.368Z,33.47
2022-08-19T00:19:33.366Z,22.80
2022-08-19T00:22:03.333Z,29.50
2022-08-19T00:24:31.649Z,27.95
2022-08-19T00:27:25.074Z,29.50
2022-08-19T00:29:52.364Z,33.20
2022-08-19T00:32:22.532Z,31.08
2022-08-19T00:34:54.403Z,32.20
2022-08-19T00:37:24.344Z,30.10
2022-08-19T00:39:53.032Z,31.98
2022-08-19T00:42:23.687Z,32.53
2022-08-19T00:44:52.548Z,27.27
2022-08-19T00:47:20.944Z,29.20
2022-08-19T00:49:55.599Z,40.35
2022-08-19T00:52:29.864Z,35.15
2022-08-19T00:55:00.183Z,36.65
2022-08-19T00:57:33.946Z,29.67
2022-08-19T01:00:04.045Z,32.78
2022-08-19T01:02:34.772Z,32.75
2022-08-19T01:05:11.236Z,28.75
2022-08-19T01:07:42.721Z,33.00
2022-08-19T01:10:17.221Z,31.35
2022-08-19T01:12:47.078Z,27.77
2022-08-19T01:15:33.199Z,29.25
2022-08-19T01:18:10.498Z,26.13
2022-08-19T01:20:43.145Z,27.23
2022-08-19T01:23:13.805Z,26.00
2022-08-19T01:25:50.815Z,28.48
2022-08-19T01:28:39.774Z,22.08
2022-08-19T01:31:12.431Z,25.42
2022-08-19T01:33:58.761Z,24.75
2022-08-19T01:36:32.314Z,27.73
2022-08-19T01:39:05.211Z,27.77
2022-08-19T01:41:33.600Z,26.40
2022-08-19T01:44:13.896Z,32.72
2022-08-19T01:46:49.037Z,29.55
2022-08-19T01:49:19.797Z,32.05
2022-08-19T01:51:50.356Z,32.10
2022-08-19T01:54:23.084Z,32.63
2022-08-19T01:57:03.991Z,32.92
2022-08-19T01:59:34.151Z,31.30
2022-08-19T02:02:02.545Z,29.75
2022-08-19T02:04:30.772Z,31.48
2022-08-19T02:07:00.558Z,38.13
2022-08-19T02:09:30.074Z,31.60
2022-08-19T02:11:58.280Z,36.05
2022-08-19T02:14:26.533Z,34.28
2022-08-19T02:16:54.775Z,34.65
2022-08-19T02:19:23.340Z,35.67
2022-08-19T02:21:51.510Z,35.63
2022-08-19T02:24:19.786Z,37.25
2022-08-19T02:26:50.419Z,36.78
2022-08-19T02:29:18.956Z,36.15
2022-08-19T02:31:47.352Z,35.20
2022-08-19T02:34:15.880Z,39.90
2022-08-19T02:36:44.189Z,34.75
2022-08-19T02:39:19.616Z,43.03
2022-08-19T02:41:47.826Z,38.28
2022-08-19T02:44:30.284Z,39.35
2022-08-19T02:47:00.047Z,45.35
2022-08-19T02:49:28.287Z,38.03
2022-08-19T02:51:56.480Z,47.63
2022-08-19T02:54:24.703Z,43.50
2022-08-19T02:56:52.912Z,53.13
2022-08-19T02:59:23.087Z,51.20
2022-08-19T03:01:51.729Z,50.50
2022-08-19T03:04:21.174Z,55.53
2022-08-19T03:06:50.256Z,56.90
2022-08-19T03:09:21.558Z,50.58
2022-08-19T03:11:52.633Z,54.80
2022-08-19T03:14:23.300Z,55.50
2022-08-19T03:16:54.593Z,58.42
2022-08-19T03:19:23.182Z,56.45
2022-08-19T03:21:52.472Z,55.35
2022-08-19T03:24:21.610Z,57.58
2022-08-19T03:26:53.773Z,47.30
2022-08-19T03:29:30.805Z,49.85
2022-08-19T03:32:01.700Z,51.03
2022-08-19T03:34:35.133Z,44.75
2022-08-19T03:37:09.561Z,44.35
2022-08-19T03:39:40.188Z,46.05
2022-08-19T03:42:38.859Z,45.47
2022-08-19T03:44:59.115Z,40.25
2022-08-19T03:47:27.415Z,37.85
2022-08-19T03:49:56.400Z,42.90
2022-08-19T03:52:24.701Z,46.03
2022-08-19T03:54:53.144Z,36.90
2022-08-19T03:57:21.783Z,40.58
2022-08-19T04:00:03.992Z,41.50
2022-08-19T04:02:42.814Z,42.88
2022-08-19T04:05:24.856Z,43.13
2022-08-19T04:07:57.962Z,48.95
2022-08-19T04:10:26.347Z,53.75
2022-08-19T04:12:54.942Z,55.28
2022-08-19T04:15:24.651Z,50.80
2022-08-19T04:17:52.993Z,47.17
2022-08-19T04:20:21.377Z,49.38
2022-08-19T04:22:49.876Z,53.53
2022-08-19T04:25:18.463Z,44.65
2022-08-19T04:27:47.364Z,46.50
2022-08-19T04:30:16.648Z,45.95
2022-08-19T04:32:46.385Z,45.45
2022-08-19T04:35:16.787Z,50.53
2022-08-19T04:37:46.167Z,54.58
2022-08-19T04:40:31.928Z,49.10
2022-08-19T04:43:00.197Z,50.60
2022-08-19T04:45:28.468Z,54.00
2022-08-19T04:48:25.669Z,48.20
2022-08-19T04:50:58.823Z,53.22
2022-08-19T04:53:29.575Z,50.10
2022-08-19T04:55:58.885Z,53.88
2022-08-19T04:58:29.728Z,46.08
2022-08-19T05:01:00.935Z,47.50
2022-08-19T05:03:34.601Z,38.42
2022-08-19T05:06:08.323Z,29.15
2022-08-19T05:08:38.540Z,35.20
2022-08-19T05:11:14.200Z,27.25
2022-08-19T05:13:43.840Z,27.58
2022-08-19T05:16:15.035Z,29.67
2022-08-19T05:19:02.538Z,26.73
2022-08-19T05:21:49.629Z,24.55
2022-08-19T05:24:20.449Z,25.42
2022-08-19T05:26:51.457Z,30.05
2022-08-19T05:29:23.093Z,24.23
2022-08-19T05:31:53.367Z,25.95
2022-08-19T05:34:27.021Z,23.00
2022-08-19T05:36:57.963Z,23.75
2022-08-19T05:39:30.078Z,21.38
2022-08-19T05:42:01.902Z,23.83
2022-08-19T05:44:34.529Z,22.80
2022-08-19T05:47:05.604Z,28.10
2022-08-19T05:49:37.161Z,22.10
2022-08-19T05:52:06.922Z,20.95
2022-08-19T05:54:36.889Z,21.38
2022-08-19T05:57:05.438Z,20.13
2022-08-19T05:59:34.737Z,21.92
2022-08-19T06:02:05.466Z,25.52
2022-08-19T06:04:35.917Z,23.70
2022-08-19T06:07:12.812Z,24.42
2022-08-19T06:09:43.734Z,24.25
2022-08-19T06:12:29.839Z,24.70
2022-08-19T06:15:01.198Z,25.55
2022-08-19T06:17:31.605Z,29.85
2022-08-19T06:20:01.622Z,32.78
2022-08-19T06:22:30.337Z,25.00
2022-08-19T06:24:58.667Z,26.20
2022-08-19T06:27:26.962Z,29.00
2022-08-19T06:29:55.213Z,31.65
2022-08-19T06:32:23.612Z,29.70
2022-08-19T06:34:51.972Z,24.52
2022-08-19T06:37:22.509Z,30.20
2022-08-19T06:39:52.316Z,30.70
2022-08-19T06:42:21.707Z,29.73
2022-08-19T06:44:53.064Z,24.95
2022-08-19T06:47:28.553Z,28.73
2022-08-19T06:50:02.838Z,27.30
2022-08-19T06:52:38.408Z,34.60
2022-08-19T06:55:08.542Z,28.85
2022-08-19T06:57:37.133Z,28.38
2022-08-19T07:00:13.039Z,27.33
2022-08-19T07:02:44.703Z,27.58
2022-08-19T07:05:16.926Z,27.70
2022-08-19T07:07:47.669Z,22.25
2022-08-19T07:10:16.234Z,21.85
2022-08-19T07:12:45.575Z,29.90
2022-08-19T07:15:15.818Z,21.63
2022-08-19T07:17:44.410Z,19.60
2022-08-19T07:20:14.222Z,24.58
2022-08-19T07:22:43.058Z,24.55
2022-08-19T07:25:14.121Z,18.55
2022-08-19T07:27:42.674Z,17.13
2022-08-19T07:30:15.321Z,22.30
2022-08-19T07:32:43.912Z,15.25
2022-08-19T07:35:12.290Z,18.38
2022-08-19T07:37:45.128Z,14.25
2022-08-19T07:40:15.278Z,16.88
2022-08-19T07:42:45.352Z,19.63
2022-08-19T07:45:13.774Z,12.02
2022-08-19T07:47:47.547Z,13.77
2022-08-19T07:50:21.837Z,12.85
2022-08-19T07:52:51.395Z,12.10
2022-08-19T07:55:41.106Z,11.82
2022-08-19T07:58:13.403Z,13.27
2022-08-19T08:00:42.787Z,12.80
2022-08-19T08:03:12.824Z,13.35
2022-08-19T08:06:13.880Z,12.25
2022-08-19T08:08:59.829Z,13.65
2022-08-19T08:11:29.666Z,12.80
2022-08-19T08:14:01.359Z,13.25
2022-08-19T08:16:39.805Z,15.50
2022-08-19T08:19:20.374Z,15.52
2022-08-19T08:21:55.877Z,16.65
2022-08-19T08:24:28.727Z,16.98
2022-08-19T08:27:02.064Z,16.42
2022-08-19T08:29:35.041Z,17.35
2022-08-19T08:32:14.903Z,18.23
2022-08-19T08:34:43.592Z,19.27
2022-08-19T08:37:11.865Z,20.30
2022-08-19T08:39:41.512Z,22.65
2022-08-19T08:42:21.283Z,19.17
2022-08-19T08:47:40.932Z,27.40
2022-08-19T08:50:17.663Z,20.13
2022-08-19T08:52:54.012Z,27.42
2022-08-19T08:55:28.397Z,21.02
2022-08-19T08:58:14.937Z,22.13
2022-08-19T09:00:48.418Z,21.90
2022-08-19T09:03:23.156Z,21.40
2022-08-19T09:06:03.068Z,20.23
2022-08-19T09:08:51.395Z,22.25
2022-08-19T09:11:52.788Z,23.00
2022-08-19T09:14:51.238Z,18.15
2022-08-19T09:17:29.110Z,21.27
2022-08-19T09:20:05.531Z,19.25
2022-08-19T09:22:33.887Z,20.38
2022-08-19T09:25:02.362Z,18.02
2022-08-19T09:27:41.955Z,22.83
2022-08-19T09:30:18.110Z,20.65
2022-08-19T09:32:47.160Z,20.52
2022-08-19T09:35:24.327Z,22.45
2022-08-19T09:37:57.549Z,17.80
2022-08-19T09:40:30.327Z,24.45
2022-08-19T09:43:09.814Z,17.80
2022-08-19T09:45:42.603Z,17.40
2022-08-19T09:48:11.774Z,22.02
2022-08-19T09:50:51.441Z,22.98
2022-08-19T09:53:25.155Z,24.23
2022-08-19T09:55:54.202Z,19.50
2022-08-19T09:58:26.657Z,17.38
2022-08-19T10:00:56.810Z,24.35
2022-08-19T10:03:30.054Z,22.63
2022-08-19T10:06:01.438Z,23.00
2022-08-19T10:08:33.814Z,22.35
2022-08-19T10:11:27.503Z,20.77
2022-08-19T10:13:53.089Z,25.42
2022-08-19T10:16:30.184Z,26.92
2022-08-19T10:19:00.206Z,25.33
2022-08-19T10:21:35.178Z,24.73
2022-08-19T10:24:07.535Z,27.27
2022-08-19T10:26:42.881Z,25.10
2022-08-19T10:29:12.428Z,29.25
2022-08-19T10:32:00.714Z,27.50
2022-08-19T10:34:32.296Z,25.77
2022-08-19T10:37:02.259Z,28.90
2022-08-19T10:39:32.770Z,25.60
2022-08-19T10:42:13.824Z,27.15
2022-08-19T10:44:42.142Z,28.17
2022-08-19T10:47:17.523Z,32.83
2022-08-19T10:50:12.422Z,34.08
2022-08-19T10:52:49.276Z,29.98
2022-08-19T10:55:40.260Z,28.77
2022-08-19T10:58:14.343Z,24.05
2022-08-19T11:00:43.549Z,35.20
2022-08-19T11:03:13.972Z,26.00
2022-08-19T11:05:42.220Z,27.70
2022-08-19T11:08:23.557Z,25.85
2022-08-19T11:10:56.246Z,29.65
2022-08-19T11:13:25.612Z,22.70
2022-08-19T11:16:07.058Z,23.75
2022-08-19T11:18:39.362Z,22.77
2022-08-19T11:21:13.690Z,24.95
2022-08-19T11:23:42.624Z,21.75
2022-08-19T11:26:11.242Z,20.85
2022-08-19T11:28:40.304Z,19.45
2022-08-19T11:31:13.571Z,24.88
2022-08-19T11:33:47.855Z,19.33
2022-08-19T11:36:17.359Z,22.02
2022-08-19T11:38:49.169Z,21.02
2022-08-19T11:41:20.099Z,17.70
2022-08-19T11:43:48.835Z,22.60
2022-08-19T11:46:18.567Z,20.17
2022-08-19T11:48:49.050Z,18.20
2022-08-19T11:51:22.434Z,23.10
2022-08-19T11:53:51.581Z,17.98
2022-08-19T11:56:21.720Z,20.58
2022-08-19T11:58:50.737Z,18.55
2022-08-19T12:01:21.965Z,17.67
2022-08-19T12:03:54.297Z,21.88
2022-08-19T12:06:29.387Z,18.25
2022-08-19T12:08:58.998Z,19.70
2022-08-19T12:11:28.011Z,14.55
2022-08-19T12:13:57.884Z,16.02
2022-08-19T12:16:30.044Z,20.90
2022-08-19T12:19:04.153Z,17.15
2022-08-19T12:21:36.362Z,18.10
2022-08-19T12:24:08.573Z,15.52
2022-08-19T12:26:52.554Z,17.33
2022-08-19T12:29:23.977Z,15.30
2022-08-19T12:31:52.746Z,17.55
2022-08-19T12:34:22.613Z,19.58
2022-08-19T12:36:51.182Z,16.27
2022-08-19T12:39:19.640Z,17.48
2022-08-19T12:41:54.472Z,17.05
2022-08-19T12:44:29.552Z,16.75
2022-08-19T12:47:01.094Z,16.30
2022-08-19T12:49:53.954Z,14.15
2022-08-19T12:52:23.938Z,18.05
2022-08-19T12:54:54.498Z,16.25
2022-08-19T12:57:32.317Z,15.75
2022-08-19T13:00:05.096Z,18.17
2022-08-19T13:02:38.339Z,16.55
2022-08-19T13:05:12.530Z,16.15
2022-08-19T13:07:44.626Z,16.75
2022-08-19T13:10:17.021Z,15.75
2022-08-19T13:12:46.724Z,16.77
2022-08-19T13:15:23.809Z,15.85
2022-08-19T13:17:55.106Z,15.80
2022-08-19T13:20:25.705Z,15.95
2022-08-19T13:22:54.699Z,18.13
2022-08-19T13:25:23.349Z,15.38
2022-08-19T13:27:53.234Z,18.45
2022-08-19T13:30:39.989Z,16.92
2022-08-19T13:33:16.478Z,15.15
2022-08-19T13:35:51.035Z,15.70
2022-08-19T13:38:23.044Z,15.65
2022-08-19T13:40:53.868Z,16.02
2022-08-19T13:43:24.940Z,15.43
2022-08-19T13:45:57.091Z,13.73
2022-08-19T13:48:28.311Z,15.68
2022-08-19T13:50:58.052Z,15.40
2022-08-19T13:53:26.377Z,15.10
2022-08-19T13:55:55.098Z,16.48
2022-08-19T13:58:24.471Z,17.33
2022-08-19T14:00:53.063Z,15.90
2022-08-19T14:03:21.401Z,18.17
2022-08-19T14:05:49.774Z,16.55
2022-08-19T14:08:20.022Z,16.77
2022-08-19T14:10:49.429Z,16.90
2022-08-19T14:13:21.826Z,15.63
2022-08-19T14:15:51.352Z,18.17
2022-08-19T14:18:20.825Z,17.20
2022-08-19T14:20:49.288Z,16.85
2022-08-19T14:23:19.045Z,17.90
2022-08-19T14:25:47.430Z,17.20
2022-08-19T14:28:15.750Z,18.60
2022-08-19T14:30:45.409Z,23.00
2022-08-19T14:33:14.656Z,20.63
2022-08-19T14:35:45.768Z,18.65
2022-08-19T14:38:28.092Z,18.80
2022-08-19T14:41:13.958Z,16.58
2022-08-19T14:43:42.458Z,17.17
2022-08-19T14:46:11.432Z,16.40
2022-08-19T14:48:41.530Z,18.25
2022-08-19T14:51:10.507Z,15.60
2022-08-19T14:53:40.664Z,16.38
2022-08-19T14:56:13.002Z,16.52
2022-08-19T14:58:42.245Z,16.80
2022-08-19T15:01:13.132Z,16.70
2022-08-19T15:03:42.143Z,16.70
2022-08-19T15:06:12.748Z,16.55
2022-08-19T15:08:45.768Z,15.43
2022-08-19T15:11:18.065Z,15.23
2022-08-19T15:13:47.456Z,15.27
2022-08-19T15:16:18.219Z,15.23
2022-08-19T15:18:50.706Z,15.65
2022-08-19T15:21:26.478Z,14.73
2022-08-19T15:23:58.894Z,14.95
2022-08-19T15:26:28.471Z,14.57
2022-08-19T15:28:56.971Z,15.07
2022-08-19T15:31:28.674Z,13.20
2022-08-19T15:33:59.241Z,12.15
2022-08-19T15:36:28.441Z,12.65
2022-08-19T15:39:00.066Z,13.35
2022-08-19T15:41:31.983Z,12.65
2022-08-19T15:44:05.040Z,14.10
2022-08-19T15:46:35.902Z,11.43
2022-08-19T15:49:05.103Z,12.10
2022-08-19T15:51:37.018Z,12.10
2022-08-19T15:54:09.265Z,11.10
2022-08-19T15:57:14.401Z,10.73
2022-08-19T16:00:03.098Z,11.75
2022-08-19T16:02:53.534Z,11.25
2022-08-19T16:05:44.374Z,10.55
2022-08-19T16:08:12.851Z,11.13
2022-08-19T16:10:42.450Z,10.30
2022-08-19T16:13:11.303Z,9.77
2022-08-19T16:15:39.919Z,11.10
2022-08-19T16:18:08.123Z,11.32
2022-08-19T16:20:36.378Z,11.05
2022-08-19T16:23:05.328Z,10.02
2022-08-19T16:25:33.635Z,10.88
2022-08-19T16:28:07.347Z,10.90
2022-08-19T16:30:39.368Z,11.65
2022-08-19T16:33:09.146Z,10.77
2022-08-19T16:35:38.284Z,14.85
2022-08-19T16:38:06.960Z,23.85
2022-08-19T16:40:35.687Z,18.08
2022-08-19T16:43:05.995Z,20.17
2022-08-19T16:45:34.257Z,20.08
2022-08-19T16:48:03.105Z,13.85
2022-08-19T16:50:48.313Z,11.25
2022-08-19T16:53:19.528Z,10.80
2022-08-19T16:55:50.731Z,11.25
2022-08-19T16:58:21.974Z,9.40
2022-08-19T17:01:03.246Z,9.45
2022-08-19T17:03:36.338Z,10.27
2022-08-19T17:06:15.973Z,10.90
2022-08-19T17:08:48.797Z,8.48
2022-08-19T17:11:18.844Z,10.02
2022-08-19T17:13:50.797Z,13.15
2022-08-19T17:16:24.430Z,10.48
2022-08-19T17:18:52.875Z,11.63
2022-08-19T17:21:22.503Z,12.73
2022-08-19T17:23:51.156Z,12.95
2022-08-19T17:26:20.091Z,10.68
2022-08-19T17:28:53.205Z,13.25
2022-08-19T17:31:25.027Z,13.45
2022-08-19T17:33:54.964Z,14.18
2022-08-19T17:36:26.215Z,13.73
2022-08-19T17:38:56.207Z,13.75
2022-08-19T17:41:25.356Z,14.30
2022-08-19T17:43:55.412Z,12.63
2022-08-19T17:46:23.635Z,14.05
2022-08-19T17:48:57.563Z,13.50
2022-08-19T17:51:41.983Z,12.65
2022-08-19T17:54:13.906Z,11.60
2022-08-19T17:56:42.797Z,11.88
2022-08-19T17:59:14.212Z,14.65
2022-08-19T18:01:53.740Z,11.90
2022-08-19T18:04:25.346Z,12.18
2022-08-19T18:06:55.404Z,12.05
2022-08-19T18:09:27.671Z,14.00
2022-08-19T18:11:57.965Z,11.60
2022-08-19T18:14:34.257Z,11.65
2022-08-19T18:17:09.132Z,15.25
2022-08-19T18:19:42.076Z,14.18
2022-08-19T18:22:13.797Z,14.57
2022-08-19T18:24:42.966Z,12.90
2022-08-19T18:27:14.895Z,13.98
2022-08-19T18:29:45.182Z,12.35
2022-08-19T18:32:14.145Z,12.55
2022-08-19T18:34:44.206Z,14.20
2022-08-19T18:37:13.113Z,13.38
2022-08-19T18:39:59.001Z,14.18
2022-08-19T18:42:45.116Z,15.05
2022-08-19T18:45:32.419Z,13.88
2022-08-19T18:48:26.640Z,13.65
2022-08-19T18:50:58.797Z,18.27
2022-08-19T18:53:30.469Z,14.07
2022-08-19T18:55:59.659Z,14.55
2022-08-19T18:58:34.403Z,14.75
2022-08-19T19:01:10.701Z,16.38
2022-08-19T19:03:41.229Z,14.07
2022-08-19T19:06:10.048Z,15.77
2022-08-19T19:08:38.757Z,14.68
2022-08-19T19:11:07.669Z,15.90
2022-08-19T19:13:39.789Z,14.57
2022-08-19T19:16:11.517Z,18.83
2022-08-19T19:18:40.335Z,16.75
2022-08-19T19:21:09.397Z,16.40
2022-08-19T19:23:40.563Z,17.75
2022-08-19T19:26:10.759Z,17.60
2022-08-19T19:28:43.816Z,16.58
2022-08-19T19:31:19.246Z,18.20
2022-08-19T19:33:47.914Z,19.67
2022-08-19T19:36:16.979Z,17.75
2022-08-19T19:38:48.541Z,17.23
2022-08-19T19:41:21.004Z,17.90
2022-08-19T19:44:04.513Z,17.27
2022-08-19T19:46:42.321Z,18.92
2022-08-19T19:49:11.471Z,17.80
2022-08-19T19:51:40.352Z,18.95
2022-08-19T19:54:13.563Z,17.10
2022-08-19T19:56:45.403Z,17.25
2022-08-19T19:59:13.807Z,16.23
2022-08-19T20:01:46.067Z,20.75
2022-08-19T20:04:16.505Z,18.58
2022-08-19T20:06:45.574Z,17.25
2022-08-19T20:09:19.457Z,19.15
2022-08-19T20:11:53.695Z,21.20
2022-08-19T20:14:25.262Z,18.27
2022-08-19T20:16:56.908Z,20.98
2022-08-19T20:19:37.191Z,22.77
2022-08-19T20:22:07.477Z,20.08
2022-08-19T20:24:36.847Z,19.65
2022-08-19T20:27:06.331Z,20.70
2022-08-19T20:29:39.469Z,20.20
2022-08-19T20:32:11.617Z,21.88
2022-08-19T20:34:40.844Z,20.33
2022-08-19T20:37:09.833Z,21.42
2022-08-19T20:39:38.696Z,21.27
2022-08-19T20:42:07.327Z,21.63
2022-08-19T20:44:35.968Z,21.60
2022-08-19T20:47:04.423Z,20.23
2022-08-19T20:49:35.166Z,19.63
2022-08-19T20:52:06.190Z,21.58
2022-08-19T20:54:35.237Z,22.50
2022-08-19T20:57:03.765Z,21.58
2022-08-19T20:59:32.095Z,23.30
2022-08-19T21:02:00.680Z,25.25
2022-08-19T21:04:28.976Z,25.10
2022-08-19T21:06:58.671Z,23.52
2022-08-19T21:09:26.920Z,24.70
2022-08-19T21:11:55.241Z,23.83
2022-08-19T21:14:23.717Z,25.05
2022-08-19T21:16:51.967Z,25.50
2022-08-19T21:19:24.053Z,26.02
2022-08-19T21:21:53.216Z,25.45
2022-08-19T21:24:29.972Z,25.58
2022-08-19T21:27:00.633Z,25.13
2022-08-19T21:29:28.819Z,24.02
2022-08-19T21:31:57.045Z,24.55
2022-08-19T21:34:25.318Z,27.25
2022-08-19T21:36:53.582Z,25.92
2022-08-19T21:39:23.134Z,26.10
2022-08-19T21:41:51.360Z,24.15
2022-08-19T21:44:19.584Z,22.75
2022-08-19T21:46:50.398Z,24.65
2022-08-19T21:49:19.563Z,23.02
2022-08-19T21:51:48.014Z,24.27
2022-08-19T21:54:16.252Z,23.42
2022-08-19T21:56:46.987Z,25.92
2022-08-19T21:59:15.299Z,23.73
2022-08-19T22:01:48.825Z,23.33
2022-08-19T22:04:21.225Z,24.88
2022-08-19T22:06:49.461Z,23.95
2022-08-19T22:09:17.738Z,24.23
2022-08-19T22:11:47.335Z,24.85
2022-08-19T22:14:15.758Z,25.67
2022-08-19T22:16:44.285Z,24.55
2022-08-19T22:19:12.791Z,23.95
2022-08-19T22:21:41.379Z,26.45
2022-08-19T22:24:10.565Z,25.38
2022-08-19T22:26:38.785Z,24.27
2022-08-19T22:29:08.462Z,23.35
2022-08-19T22:31:37.560Z,23.40
2022-08-19T22:34:06.832Z,25.42
2022-08-19T22:36:35.377Z,22.55
2022-08-19T22:39:05.132Z,23.13
2022-08-19T22:41:33.875Z,24.15
2022-08-19T22:44:03.765Z,20.60
2022-08-19T22:46:34.177Z,19.10
2022-08-19T22:49:02.530Z,20.38
2022-08-19T22:51:51.120Z,19.55
2022-08-19T22:54:19.628Z,20.17
2022-08-19T22:56:47.878Z,18.95
2022-08-19T22:59:16.117Z,17.85
2022-08-19T23:01:46.239Z,19.02
2022-08-19T23:04:14.597Z,20.50
2022-08-19T23:06:42.810Z,17.55
2022-08-19T23:09:16.853Z,20.33
2022-08-19T23:11:46.547Z,17.25
2022-08-19T23:14:17.570Z,16.85
2022-08-19T23:16:51.037Z,17.05
2022-08-19T23:19:21.672Z,19.05
2022-08-19T23:21:52.461Z,18.17
2022-08-19T23:24:20.894Z,15.90
2022-08-19T23:27:06.825Z,16.48
2022-08-19T23:29:52.637Z,16.65
2022-08-19T23:32:25.958Z,12.70
2022-08-19T23:34:57.701Z,13.55
2022-08-19T23:37:27.981Z,11.32
2022-08-19T23:39:56.296Z,11.45
2022-08-19T23:42:25.930Z,9.50
2022-08-19T23:44:54.073Z,11.23
2022-08-19T23:47:23.688Z,9.63
2022-08-19T23:49:51.893Z,9.25
2022-08-19T23:52:20.679Z,8.20
2022-08-19T23:54:48.895Z,8.43
2022-08-19T23:57:17.166Z,8.05
2022-08-19T23:59:46.252Z,7.90
